Ansted, West Virginia
Current Conditions -  °F | °C
As of 1:51 PM on Thursday 18 Dec 2014 (Local Time) from KBKW Reporting Station
Broken Clouds Broken Clouds  
Wind Chill: -2°   Ceiling: 9000
Heat Index:   Visibility: 10mi
Dew Point: -6°   Wind: 7mph
Humidity: 57%   Direction: 260°W
Pressure: 30.08"   Gusts: NA
Location:  38.14°N, 81.1°W
Report Text: KBKW 181851Z AUTO 26006KT 10SM BKN090 02/M06 A3008 RMK AO2 SLP213 T00171061 $
Loading
Personal Weather Stations






























Interactive Weather Map New forecast layout! Learn more

10-Day Weather Forecast

Advertisements
Track Severe Weather on mobile